Time;durP1;ratioP1;P1;durP2;ratioP2;P2;SDS_P1;SDS_P2;PMS_P1;PMS_P2;Temp;Humidity;BMP_temperature;BMP_pressure;BME280_temperature;BME280_humidity;BME280_pressure;Samples;Min_cycle;Max_cycle;Signal;HPM_P1;HPM_P2
2022/04/08 00:02:04;;;;;;;3.70;0.60;;;5.70;86.90;;;;;;5013356;28;20042;-80
2022/04/08 00:04:32;;;;;;;5.38;1.10;;;5.70;87.20;;;;;;4997023;28;20050;-77
2022/04/08 00:07:01;;;;;;;4.78;0.65;;;5.60;87.70;;;;;;5013304;28;20046;-78
2022/04/08 00:09:27;;;;;;;7.25;1.30;;;5.60;87.70;;;;;;5013442;28;20041;-80
2022/04/08 00:11:52;;;;;;;5.20;1.00;;;5.60;85.60;;;;;;4996848;28;20040;-78
2022/04/08 00:14:18;;;;;;;4.25;0.98;;;5.50;85.90;;;;;;5013390;28;20676;-79
2022/04/08 00:16:45;;;;;;;8.73;1.25;;;5.50;86.40;;;;;;5013048;28;20044;-79
2022/04/08 00:19:11;;;;;;;4.75;1.00;;;5.40;86.80;;;;;;4996964;28;20073;-80
2022/04/08 00:21:37;;;;;;;7.18;2.55;;;5.40;87.00;;;;;;5012954;28;20537;-80
2022/04/08 00:24:03;;;;;;;7.28;1.52;;;5.40;87.20;;;;;;5012829;28;20126;-79
2022/04/08 00:26:29;;;;;;;5.18;1.40;;;5.40;87.80;;;;;;5012955;28;20084;-79
2022/04/08 00:28:55;;;;;;;2.05;0.85;;;5.40;88.10;;;;;;5012823;28;20081;-79
2022/04/08 00:31:21;;;;;;;7.95;1.23;;;5.40;87.20;;;;;;5012702;28;20477;-79
2022/04/08 00:33:47;;;;;;;6.13;1.30;;;5.20;87.00;;;;;;5012653;28;20038;-79
2022/04/08 00:36:13;;;;;;;6.28;1.27;;;5.10;87.30;;;;;;5012520;28;20145;-79
2022/04/08 00:38:38;;;;;;;3.78;1.20;;;5.10;87.70;;;;;;5012977;28;20042;-79
2022/04/08 00:41:04;;;;;;;7.90;1.40;;;5.10;85.70;;;;;;5012909;28;20136;-78
2022/04/08 00:43:36;;;;;;;2.83;0.95;;;5.10;85.80;;;;;;5012472;28;20410;-78
2022/04/08 00:46:03;;;;;;;4.47;1.88;;;5.10;85.70;;;;;;5012803;28;20124;-79
2022/04/08 00:48:29;;;;;;;6.45;1.17;;;5.10;85.40;;;;;;5012809;28;20393;-79
2022/04/08 00:50:55;;;;;;;6.75;1.30;;;5.10;85.40;;;;;;5012618;28;20133;-79
2022/04/08 00:53:23;;;;;;;11.63;1.38;;;5.20;85.80;;;;;;5011723;28;20033;-80
2022/04/08 00:55:49;;;;;;;9.63;1.80;;;5.20;85.90;;;;;;5012543;28;20437;-80
2022/04/08 00:58:16;;;;;;;9.85;2.00;;;5.20;86.30;;;;;;5012349;28;20049;-80
2022/04/08 01:00:42;;;;;;;6.30;1.38;;;5.20;86.90;;;;;;4996307;28;20479;-79
2022/04/08 01:03:08;;;;;;;11.68;1.85;;;5.20;87.10;;;;;;4996128;28;20033;-79
2022/04/08 01:05:34;;;;;;;6.80;2.15;;;5.20;87.10;;;;;;5012627;28;20068;-79
2022/04/08 01:08:01;;;;;;;11.00;2.40;;;5.20;87.30;;;;;;5012182;28;20490;-80
2022/04/08 01:10:27;;;;;;;10.43;1.63;;;5.30;87.50;;;;;;5012059;28;20042;-80
2022/04/08 01:12:53;;;;;;;15.68;4.00;;;5.20;87.60;;;;;;4979569;28;20048;-80
2022/04/08 01:15:20;;;;;;;9.13;3.03;;;5.20;87.60;;;;;;5012466;28;20102;-78
2022/04/08 01:17:47;;;;;;;13.60;2.13;;;5.20;87.70;;;;;;4995790;28;20124;-80
2022/04/08 01:20:13;;;;;;;11.25;2.65;;;5.10;87.80;;;;;;5012361;28;20386;-79
2022/04/08 01:22:39;;;;;;;12.90;3.45;;;5.10;87.80;;;;;;5012222;28;20049;-80
2022/04/08 01:25:06;;;;;;;14.02;2.60;;;5.10;88.00;;;;;;4995846;28;20402;-79
2022/04/08 01:27:32;;;;;;;15.23;2.42;;;5.10;88.00;;;;;;4979586;28;20046;-78
2022/04/08 01:29:58;;;;;;;14.23;2.08;;;5.00;88.30;;;;;;4995615;28;20037;-79
2022/04/08 01:32:24;;;;;;;13.32;3.30;;;5.00;87.90;;;;;;5011856;28;20042;-80
2022/04/08 01:34:52;;;;;;;11.32;2.20;;;5.00;88.00;;;;;;5011933;28;20536;-79
2022/04/08 01:37:18;;;;;;;12.57;2.28;;;5.00;88.20;;;;;;4995748;28;20053;-78
2022/04/08 01:39:44;;;;;;;14.65;2.47;;;4.90;87.90;;;;;;5011746;28;20049;-79
2022/04/08 01:42:10;;;;;;;14.43;2.88;;;4.90;88.10;;;;;;4995521;28;20041;-79
2022/04/08 01:44:36;;;;;;;11.07;2.17;;;4.90;88.20;;;;;;5011826;28;20077;-79
2022/04/08 01:47:03;;;;;;;19.02;3.42;;;4.90;87.90;;;;;;5011797;28;20045;-79
2022/04/08 01:49:29;;;;;;;13.38;3.10;;;4.90;88.10;;;;;;5011981;28;20042;-79
2022/04/08 01:51:54;;;;;;;19.60;3.55;;;5.00;88.20;;;;;;4995301;28;20529;-79
2022/04/08 01:54:20;;;;;;;15.93;3.55;;;5.00;87.90;;;;;;4995571;28;20121;-80
2022/04/08 01:56:46;;;;;;;7.82;1.52;;;5.10;87.50;;;;;;4995411;28;20046;-80
2022/04/08 01:59:12;;;;;;;6.85;1.67;;;5.20;86.90;;;;;;5011732;28;20050;-78
2022/04/08 02:01:38;;;;;;;3.88;0.80;;;5.20;83.20;;;;;;4995535;28;20045;-80
2022/04/08 02:04:04;;;;;;;3.83;1.17;;;5.20;81.80;;;;;;4996172;28;20041;-78
2022/04/08 02:06:30;;;;;;;4.20;1.45;;;5.10;81.50;;;;;;4982965;28;20148;-80
2022/04/08 02:08:57;;;;;;;5.57;1.00;;;5.20;80.50;;;;;;5015433;28;20049;-78
2022/04/08 02:11:23;;;;;;;4.28;0.80;;;5.20;79.10;;;;;;4999114;28;20129;-78
2022/04/08 02:13:49;;;;;;;6.30;1.00;;;5.10;78.90;;;;;;5015256;28;20077;-81
2022/04/08 02:16:15;;;;;;;7.18;1.63;;;5.20;79.30;;;;;;5015355;28;20125;-78
2022/04/08 02:18:42;;;;;;;10.57;2.28;;;5.30;80.00;;;;;;5015344;28;20074;-78
2022/04/08 02:21:09;;;;;;;9.27;1.60;;;5.30;81.10;;;;;;4998909;28;20099;-78
2022/04/08 02:23:36;;;;;;;9.95;2.40;;;5.40;82.10;;;;;;5015360;28;20440;-79
2022/04/08 02:26:06;;;;;;;11.38;1.80;;;5.50;82.80;;;;;;5015159;28;20077;-78
2022/04/08 02:28:35;;;;;;;10.57;1.98;;;5.60;83.20;;;;;;5015447;28;20054;-80
2022/04/08 02:31:01;;;;;;;11.02;1.92;;;5.60;83.60;;;;;;5015255;28;20068;-79
2022/04/08 02:33:26;;;;;;;9.57;2.08;;;5.60;84.30;;;;;;4998865;28;20483;-78
2022/04/08 02:35:52;;;;;;;11.73;2.80;;;5.60;84.60;;;;;;5014776;28;20161;-78
2022/04/08 02:38:18;;;;;;;14.70;2.75;;;5.60;84.70;;;;;;5015187;28;20054;-80
2022/04/08 02:40:43;;;;;;;14.25;2.75;;;5.60;84.60;;;;;;5014914;28;20509;-79
2022/04/08 02:43:09;;;;;;;12.80;2.25;;;5.60;85.30;;;;;;4998619;28;20041;-79
2022/04/08 02:45:36;;;;;;;11.80;2.95;;;5.50;85.40;;;;;;5014855;28;20052;-78
2022/04/08 02:48:02;;;;;;;13.18;2.90;;;5.50;85.50;;;;;;5014754;28;20096;-79
2022/04/08 02:50:28;;;;;;;14.07;2.33;;;5.60;85.50;;;;;;5014936;28;20037;-78
2022/04/08 02:52:53;;;;;;;10.38;2.17;;;5.60;85.70;;;;;;5014918;28;20073;-80
2022/04/08 02:55:19;;;;;;;8.70;1.80;;;5.60;85.90;;;;;;5014728;28;20037;-79
2022/04/08 02:57:46;;;;;;;10.32;1.20;;;5.60;85.80;;;;;;5014620;28;20093;-79
2022/04/08 03:00:16;;;;;;;9.35;2.17;;;5.70;85.30;;;;;;4998218;28;20038;-78
2022/04/08 03:02:43;;;;;;;14.68;1.70;;;5.70;84.40;;;;;;5014476;28;20494;-79
2022/04/08 03:05:09;;;;;;;10.35;2.20;;;5.80;83.20;;;;;;4998353;28;20446;-78
2022/04/08 03:07:35;;;;;;;8.35;1.77;;;5.80;82.80;;;;;;5014752;28;20192;-79
2022/04/08 03:10:05;;;;;;;5.28;1.45;;;5.90;82.40;;;;;;5014353;28;20528;-79
2022/04/08 03:12:31;;;;;;;6.10;1.33;;;5.90;82.50;;;;;;5014225;28;20041;-79
2022/04/08 03:14:57;;;;;;;11.00;1.75;;;5.80;82.90;;;;;;5014494;28;20522;-78
2022/04/08 03:17:23;;;;;;;3.60;1.42;;;5.80;83.20;;;;;;5013612;28;20042;-79
2022/04/08 03:19:49;;;;;;;4.72;0.70;;;5.60;81.40;;;;;;5014085;28;20482;-79
2022/04/08 03:22:19;;;;;;;2.25;0.65;;;5.30;82.00;;;;;;4981717;28;20069;-78
2022/04/08 03:24:45;;;;;;;1.90;0.57;;;5.10;83.90;;;;;;5014116;28;20057;-79
2022/04/08 03:27:11;;;;;;;4.20;0.40;;;4.90;83.90;;;;;;4997936;28;20376;-78
2022/04/08 03:29:37;;;;;;;5.43;0.80;;;4.70;83.60;;;;;;4998038;28;20049;-79
2022/04/08 03:32:03;;;;;;;3.28;0.65;;;4.60;84.20;;;;;;5013753;28;20401;-79
2022/04/08 03:34:28;;;;;;;6.28;0.95;;;4.40;84.50;;;;;;4997841;28;20115;-79
2022/04/08 03:36:54;;;;;;;3.25;0.85;;;4.30;84.40;;;;;;5013711;28;20080;-77
2022/04/08 03:39:20;;;;;;;7.03;1.40;;;4.20;84.80;;;;;;5014086;28;20042;-80
2022/04/08 03:41:46;;;;;;;3.85;1.00;;;4.10;85.30;;;;;;5013998;28;20458;-80
2022/04/08 03:44:11;;;;;;;5.43;0.90;;;4.10;86.00;;;;;;5013700;28;20048;-79
2022/04/08 03:46:37;;;;;;;4.07;0.98;;;4.10;86.00;;;;;;5013618;28;20049;-80
2022/04/08 03:49:11;;;;;;;5.03;1.23;;;4.10;86.00;;;;;;5013635;28;20092;-80
2022/04/08 03:51:36;;;;;;;4.60;1.17;;;4.10;85.80;;;;;;4997392;28;20475;-79
2022/04/08 03:54:02;;;;;;;2.85;0.85;;;4.20;85.60;;;;;;5013450;28;20069;-79
2022/04/08 03:56:28;;;;;;;3.60;1.58;;;4.20;85.20;;;;;;4997439;28;20095;-81
2022/04/08 03:58:56;;;;;;;4.32;1.15;;;4.20;85.30;;;;;;4997181;28;20042;-77
2022/04/08 04:01:22;;;;;;;1.40;0.63;;;4.20;85.20;;;;;;4997034;28;20128;-80
2022/04/08 04:03:48;;;;;;;3.40;1.10;;;4.20;85.50;;;;;;5013256;28;20133;-82
2022/04/08 04:06:13;;;;;;;3.33;0.82;;;4.20;85.50;;;;;;5013444;28;20046;-80
2022/04/08 04:08:39;;;;;;;6.07;1.20;;;4.20;85.50;;;;;;4997211;28;20448;-80
2022/04/08 04:11:05;;;;;;;3.30;0.85;;;4.30;85.90;;;;;;5013175;28;20490;-80
2022/04/08 04:13:30;;;;;;;5.28;1.58;;;4.40;86.60;;;;;;5013093;28;20038;-78
2022/04/08 04:15:56;;;;;;;4.78;2.35;;;4.60;87.20;;;;;;5013068;28;20115;-79
2022/04/08 04:18:22;;;;;;;8.60;1.67;;;4.60;86.90;;;;;;5013064;28;20042;-79
2022/04/08 04:20:47;;;;;;;2.80;1.27;;;4.50;86.80;;;;;;5013008;28;20049;-80
2022/04/08 04:23:13;;;;;;;5.35;0.98;;;4.40;87.20;;;;;;5013177;28;20048;-79
2022/04/08 04:25:39;;;;;;;4.55;1.10;;;4.40;87.10;;;;;;4996586;28;20073;-79
2022/04/08 04:28:04;;;;;;;2.67;0.90;;;4.30;87.10;;;;;;4980249;28;20081;-79
2022/04/08 04:30:30;;;;;;;4.35;1.00;;;4.30;87.00;;;;;;4996436;28;20037;-80
2022/04/08 04:32:56;;;;;;;2.40;1.00;;;4.30;86.10;;;;;;5012945;28;20049;-79
2022/04/08 04:35:22;;;;;;;4.75;1.17;;;4.30;85.50;;;;;;5013048;28;20483;-79
2022/04/08 04:37:48;;;;;;;2.60;0.82;;;4.30;84.90;;;;;;5012602;28;20046;-81
2022/04/08 04:40:14;;;;;;;5.22;1.33;;;4.30;84.90;;;;;;5012771;28;20073;-79
2022/04/08 04:42:39;;;;;;;3.72;1.45;;;4.30;84.60;;;;;;4996291;28;20065;-80
2022/04/08 04:45:05;;;;;;;3.67;1.20;;;4.30;84.60;;;;;;5012864;28;20128;-80
2022/04/08 04:47:31;;;;;;;6.88;1.77;;;4.30;84.70;;;;;;5012560;28;20403;-80
2022/04/08 04:49:57;;;;;;;2.95;1.23;;;4.20;84.80;;;;;;4980116;28;20041;-81
2022/04/08 04:52:23;;;;;;;4.30;1.60;;;4.20;85.00;;;;;;5012175;28;20140;-79
2022/04/08 04:54:48;;;;;;;3.20;1.30;;;4.20;84.80;;;;;;5012149;28;20037;-79
2022/04/08 04:57:15;;;;;;;1.17;0.90;;;4.10;84.90;;;;;;5012391;28;20123;-80
2022/04/08 04:59:41;;;;;;;1.70;0.90;;;4.10;85.40;;;;;;4996136;28;20042;-80
2022/04/08 05:02:07;;;;;;;3.30;1.20;;;4.20;84.90;;;;;;4979866;28;20053;-80
2022/04/08 05:04:32;;;;;;;3.47;0.98;;;4.10;84.50;;;;;;5012302;28;20418;-80
2022/04/08 05:06:58;;;;;;;6.32;1.33;;;4.20;84.50;;;;;;4996253;28;20148;-78
2022/04/08 05:09:24;;;;;;;3.97;1.27;;;4.10;84.50;;;;;;5012461;28;20136;-79
2022/04/08 05:11:49;;;;;;;3.63;1.23;;;4.10;84.70;;;;;;4995886;28;20077;-80
2022/04/08 05:14:15;;;;;;;2.47;1.27;;;4.00;85.10;;;;;;4996048;28;20474;-79
2022/04/08 05:16:41;;;;;;;6.72;1.55;;;3.90;85.50;;;;;;4995801;28;20499;-81
2022/04/08 05:19:06;;;;;;;7.65;1.75;;;3.80;85.80;;;;;;4979707;28;20042;-78
2022/04/08 05:21:33;;;;;;;5.82;1.80;;;3.80;86.30;;;;;;4996023;28;20052;-80
2022/04/08 05:23:59;;;;;;;4.90;1.80;;;3.80;86.60;;;;;;4979903;28;20046;-80
2022/04/08 05:26:25;;;;;;;6.63;1.83;;;3.90;87.00;;;;;;4995759;28;20144;-80
2022/04/08 05:28:51;;;;;;;6.30;2.00;;;3.90;87.50;;;;;;5011936;28;20042;-77
2022/04/08 05:31:16;;;;;;;7.53;2.08;;;3.90;87.80;;;;;;5011862;28;20132;-77
2022/04/08 05:33:42;;;;;;;8.38;2.90;;;4.00;88.00;;;;;;5012032;28;20030;-79
2022/04/08 05:36:08;;;;;;;8.60;1.67;;;4.00;88.40;;;;;;4995353;28;20089;-80
2022/04/08 05:38:34;;;;;;;7.05;2.13;;;4.00;89.00;;;;;;4996604;28;20034;-80
2022/04/08 05:41:00;;;;;;;7.90;2.08;;;4.00;89.00;;;;;;5001967;28;20459;-80
2022/04/08 05:43:25;;;;;;;7.10;2.10;;;4.00;88.90;;;;;;4985740;28;20095;-78
2022/04/08 05:45:52;;;;;;;8.95;1.80;;;4.10;89.10;;;;;;5018331;28;20046;-79
2022/04/08 05:48:18;;;;;;;5.95;2.25;;;4.00;89.10;;;;;;5018359;28;20049;-79
2022/04/08 05:50:43;;;;;;;7.05;1.88;;;4.10;89.30;;;;;;4985717;28;20049;-80
2022/04/08 05:53:09;;;;;;;6.55;1.92;;;4.20;89.20;;;;;;5002044;28;20038;-78
2022/04/08 05:55:35;;;;;;;7.47;1.60;;;4.20;89.50;;;;;;5002238;28;20041;-79
2022/04/08 05:58:01;;;;;;;4.13;1.40;;;4.30;89.60;;;;;;5001894;28;20080;-78
2022/04/08 06:00:27;;;;;;;7.68;2.22;;;4.40;89.30;;;;;;5018491;28;20037;-79
2022/04/08 06:02:55;;;;;;;4.88;2.03;;;4.50;89.20;;;;;;4986501;28;20060;-79
2022/04/08 06:05:21;;;;;;;4.00;1.67;;;4.50;89.50;;;;;;5024159;28;20542;-79
2022/04/08 06:07:53;;;;;;;5.50;2.10;;;4.50;89.30;;;;;;5003553;28;20044;-80
2022/04/08 06:10:22;;;;;;;9.45;2.33;;;4.60;89.40;;;;;;5020034;28;20042;-80
2022/04/08 06:12:57;;;;;;;10.15;2.25;;;4.60;89.30;;;;;;5001955;28;20038;-81
2022/04/08 06:15:24;;;;;;;8.25;2.58;;;4.60;89.50;;;;;;5022088;28;20068;-81
2022/04/08 06:17:50;;;;;;;6.78;1.98;;;4.60;89.70;;;;;;4996989;28;20490;-82
2022/04/08 06:20:18;;;;;;;5.97;2.15;;;4.60;89.60;;;;;;5022677;28;20072;-79
2022/04/08 06:22:45;;;;;;;9.60;1.88;;;4.70;89.60;;;;;;5017757;28;20449;-79
2022/04/08 06:25:12;;;;;;;10.57;1.63;;;4.70;89.90;;;;;;5001599;28;20554;-78
2022/04/08 06:27:38;;;;;;;9.13;2.45;;;5.00;89.90;;;;;;5018245;28;20041;-81
2022/04/08 06:30:09;;;;;;;10.45;2.25;;;5.10;89.80;;;;;;5017651;28;20554;-80
2022/04/08 06:32:37;;;;;;;6.18;1.92;;;5.30;90.00;;;;;;5017863;28;20403;-78
2022/04/08 06:35:06;;;;;;;8.20;1.88;;;5.50;89.50;;;;;;5018149;28;20042;-79
2022/04/08 06:37:31;;;;;;;6.80;2.13;;;5.50;88.80;;;;;;5017746;28;20540;-78
2022/04/08 06:40:06;;;;;;;10.98;3.97;;;5.40;88.50;;;;;;5017883;28;20129;-78
2022/04/08 06:42:32;;;;;;;9.23;2.42;;;5.40;88.00;;;;;;5017888;28;20042;-78
2022/04/08 06:44:59;;;;;;;9.38;2.33;;;5.30;87.90;;;;;;5001502;28;20041;-79
2022/04/08 06:47:25;;;;;;;6.20;2.05;;;5.20;87.90;;;;;;5018094;28;20401;-78
2022/04/08 06:49:51;;;;;;;7.15;2.63;;;5.20;88.10;;;;;;5000768;28;20050;-77
2022/04/08 06:52:17;;;;;;;11.98;2.42;;;5.40;88.30;;;;;;4998236;28;20054;-78
2022/04/08 06:54:43;;;;;;;6.35;1.83;;;5.50;88.10;;;;;;5014956;28;20146;-78
2022/04/08 06:57:09;;;;;;;6.90;2.20;;;5.60;88.00;;;;;;5014940;28;20045;-78
2022/04/08 06:59:35;;;;;;;10.30;3.15;;;5.70;88.10;;;;;;5014555;28;20038;-78
2022/04/08 07:02:01;;;;;;;8.80;2.28;;;5.90;87.90;;;;;;4998407;28;20042;-79
2022/04/08 07:04:27;;;;;;;3.97;1.30;;;5.90;87.30;;;;;;5014628;28;20057;-78
2022/04/08 07:06:53;;;;;;;7.07;1.40;;;5.90;86.50;;;;;;5014461;28;20132;-77
2022/04/08 07:09:19;;;;;;;3.40;1.38;;;5.70;86.30;;;;;;5014444;28;20048;-78
2022/04/08 07:11:46;;;;;;;2.42;1.08;;;5.70;86.20;;;;;;5014341;28;20045;-79
2022/04/08 07:14:13;;;;;;;5.03;1.38;;;5.60;86.50;;;;;;4982063;28;20038;-78
2022/04/08 07:16:41;;;;;;;4.75;1.00;;;5.60;86.60;;;;;;4981729;28;20133;-77
2022/04/08 07:19:10;;;;;;;5.35;1.30;;;5.60;86.80;;;;;;5014548;28;20077;-78
2022/04/08 07:21:35;;;;;;;5.05;1.00;;;5.70;86.60;;;;;;5014119;28;20046;-78
2022/04/08 07:24:01;;;;;;;8.35;1.70;;;5.80;86.60;;;;;;5014066;28;20379;-77
2022/04/08 07:26:27;;;;;;;4.50;1.60;;;5.90;86.40;;;;;;5014328;28;20132;-78
2022/04/08 07:28:53;;;;;;;4.72;1.55;;;6.00;86.40;;;;;;4998027;28;20406;-78
2022/04/08 07:31:18;;;;;;;8.23;1.50;;;6.10;86.20;;;;;;5013963;28;20494;-78
2022/04/08 07:33:44;;;;;;;5.32;1.58;;;6.20;86.30;;;;;;5014102;28;20088;-78
2022/04/08 07:36:11;;;;;;;4.15;1.50;;;6.30;86.10;;;;;;4996853;28;20057;-78
2022/04/08 07:38:37;;;;;;;7.38;1.40;;;6.40;86.00;;;;;;5014079;28;20512;-78
2022/04/08 07:41:03;;;;;;;3.50;1.00;;;6.50;85.80;;;;;;5013782;28;20180;-77
2022/04/08 07:43:29;;;;;;;3.65;1.02;;;6.60;84.80;;;;;;5013735;28;20037;-78
2022/04/08 07:45:55;;;;;;;6.60;1.30;;;6.70;83.50;;;;;;5013751;28;20176;-78
2022/04/08 07:48:20;;;;;;;3.47;1.25;;;6.80;82.80;;;;;;5013750;28;20044;-77
2022/04/08 07:50:46;;;;;;;7.03;1.35;;;6.90;82.60;;;;;;5013546;28;20046;-78
2022/04/08 07:53:12;;;;;;;5.88;1.23;;;7.00;82.40;;;;;;5013526;28;20038;-78
2022/04/08 07:55:39;;;;;;;4.32;1.70;;;7.10;82.30;;;;;;4997190;28;20333;-78
2022/04/08 07:58:05;;;;;;;7.05;1.55;;;7.10;81.70;;;;;;5013513;28;20048;-79
2022/04/08 08:00:32;;;;;;;4.32;1.20;;;7.20;81.10;;;;;;5013729;28;20064;-79
2022/04/08 08:02:58;;;;;;;4.40;1.08;;;7.30;80.30;;;;;;5013069;28;20038;-79
2022/04/08 08:05:25;;;;;;;4.45;1.70;;;7.30;80.10;;;;;;5013290;28;20120;-79
2022/04/08 08:07:53;;;;;;;2.47;0.80;;;7.40;78.50;;;;;;4997234;28;20128;-79
2022/04/08 08:10:21;;;;;;;5.10;2.03;;;7.50;78.10;;;;;;5013513;28;20046;-79
2022/04/08 08:12:47;;;;;;;4.05;1.15;;;7.50;76.90;;;;;;4996776;28;20073;-78
2022/04/08 08:15:15;;;;;;;4.55;1.42;;;7.60;77.50;;;;;;5013181;28;20056;-77
2022/04/08 08:17:41;;;;;;;4.53;1.17;;;7.60;77.40;;;;;;5013319;28;20390;-79
2022/04/08 08:20:09;;;;;;;3.53;1.05;;;7.60;77.90;;;;;;4997044;28;20128;-78
2022/04/08 08:22:36;;;;;;;5.85;1.02;;;7.80;77.60;;;;;;4996945;28;20045;-77
2022/04/08 08:25:03;;;;;;;6.53;1.20;;;7.80;76.40;;;;;;5013006;28;20049;-77
2022/04/08 08:27:45;;;;;;;4.30;2.00;;;7.80;75.50;;;;;;5012957;28;20124;-79
2022/04/08 08:30:14;;;;;;;3.72;1.23;;;7.70;76.10;;;;;;5012995;28;20125;-79
2022/04/08 08:32:42;;;;;;;5.03;1.15;;;7.60;76.70;;;;;;5012722;28;20050;-78
2022/04/08 08:35:09;;;;;;;3.25;1.10;;;7.60;76.70;;;;;;4996490;28;20132;-77
2022/04/08 08:37:36;;;;;;;5.78;1.52;;;7.70;76.30;;;;;;5012625;28;20056;-77
2022/04/08 08:40:06;;;;;;;5.32;1.35;;;7.70;76.40;;;;;;5012816;28;20049;-78
2022/04/08 08:42:34;;;;;;;5.25;1.60;;;7.70;77.40;;;;;;5013106;28;20498;-78
2022/04/08 08:45:00;;;;;;;6.95;1.17;;;7.60;77.40;;;;;;4996564;28;20158;-79
2022/04/08 08:47:27;;;;;;;5.32;2.15;;;7.60;77.40;;;;;;4996330;28;20132;-78
2022/04/08 08:49:55;;;;;;;3.45;1.10;;;7.70;76.70;;;;;;5012556;28;20045;-79
2022/04/08 08:52:22;;;;;;;4.47;1.38;;;7.90;76.40;;;;;;4996256;28;20402;-79
2022/04/08 08:54:48;;;;;;;4.97;1.50;;;8.10;74.10;;;;;;4996393;28;20450;-78
2022/04/08 08:57:18;;;;;;;6.10;1.10;;;8.10;72.10;;;;;;4979970;28;20087;-79
2022/04/08 08:59:45;;;;;;;5.25;1.75;;;8.20;72.00;;;;;;5012547;28;20042;-79
2022/04/08 09:02:16;;;;;;;5.38;0.95;;;8.30;71.70;;;;;;5012417;28;20132;-79
2022/04/08 09:04:42;;;;;;;6.47;1.65;;;8.40;72.80;;;;;;5012494;28;20049;-79
2022/04/08 09:07:21;;;;;;;7.30;1.63;;;8.50;71.50;;;;;;5012385;28;20118;-78
2022/04/08 09:09:52;;;;;;;6.43;2.08;;;8.40;72.50;;;;;;5012256;28;20124;-79
2022/04/08 09:12:18;;;;;;;7.55;1.60;;;8.30;74.00;;;;;;5012286;28;20096;-79
2022/04/08 09:14:51;;;;;;;3.20;1.60;;;8.40;73.70;;;;;;4995390;28;20060;-78
2022/04/08 09:17:18;;;;;;;2.75;0.90;;;8.60;72.70;;;;;;5012266;28;20038;-78
2022/04/08 09:19:52;;;;;;;3.88;1.52;;;8.50;71.80;;;;;;4996103;28;20048;-79
2022/04/08 09:22:18;;;;;;;5.45;1.48;;;8.60;72.60;;;;;;5012264;28;20060;-78
2022/04/08 09:24:44;;;;;;;7.82;1.98;;;8.60;71.10;;;;;;5012093;28;20648;-79
2022/04/08 09:27:11;;;;;;;5.20;1.45;;;8.80;71.20;;;;;;5012090;28;20120;-79
2022/04/08 09:29:37;;;;;;;2.78;1.20;;;8.90;70.50;;;;;;5012043;28;20560;-78
2022/04/08 09:32:11;;;;;;;5.18;1.48;;;8.90;70.00;;;;;;5011795;28;20042;-79
2022/04/08 09:34:37;;;;;;;4.85;1.10;;;8.70;71.00;;;;;;5011958;28;20514;-78
2022/04/08 09:37:11;;;;;;;4.95;1.23;;;8.50;71.30;;;;;;4995312;28;20061;-79
2022/04/08 09:39:53;;;;;;;3.28;1.27;;;8.30;71.50;;;;;;4995499;28;20046;-79
2022/04/08 09:42:19;;;;;;;5.75;0.95;;;8.30;72.40;;;;;;5012087;28;20400;-78
2022/04/08 09:44:44;;;;;;;9.55;1.90;;;8.50;73.20;;;;;;5011950;28;20053;-77
2022/04/08 09:47:10;;;;;;;4.95;1.40;;;8.60;71.70;;;;;;5012140;28;20034;-78
2022/04/08 09:49:36;;;;;;;3.55;1.40;;;8.70;72.70;;;;;;5011829;28;20546;-78
2022/04/08 09:52:05;;;;;;;5.32;0.93;;;8.90;72.90;;;;;;5011783;28;20042;-78
2022/04/08 09:54:33;;;;;;;4.68;1.65;;;8.90;71.80;;;;;;5012084;28;20069;-78
2022/04/08 09:56:59;;;;;;;8.05;1.27;;;8.90;69.30;;;;;;4995712;28;20038;-78
2022/04/08 09:59:30;;;;;;;3.80;1.17;;;9.10;69.60;;;;;;5011732;28;20046;-78
2022/04/08 10:02:00;;;;;;;5.53;1.42;;;9.30;69.30;;;;;;5011608;28;20034;-79
2022/04/08 10:04:26;;;;;;;2.47;0.80;;;9.30;68.00;;;;;;4995446;28;20046;-78
2022/04/08 10:06:52;;;;;;;0.82;0.50;;;9.20;68.90;;;;;;4995420;28;20050;-78
2022/04/08 10:09:19;;;;;;;1.98;0.80;;;8.80;72.40;;;;;;5011660;28;20046;-79
2022/04/08 10:11:45;;;;;;;3.53;1.05;;;8.20;73.70;;;;;;5011447;28;20052;-78
2022/04/08 10:14:16;;;;;;;3.78;1.08;;;7.70;75.40;;;;;;5011842;28;20150;-78
2022/04/08 10:16:42;;;;;;;5.35;1.45;;;7.30;77.10;;;;;;5011577;28;20048;-78
2022/04/08 10:19:11;;;;;;;7.88;1.95;;;7.10;78.20;;;;;;4979200;28;20073;-79
2022/04/08 10:21:40;;;;;;;6.60;2.05;;;6.80;80.10;;;;;;5011505;28;20499;-79
2022/04/08 10:24:10;;;;;;;2.75;1.00;;;6.50;80.40;;;;;;4995122;28;20042;-79
2022/04/08 10:27:08;;;;;;;7.22;2.80;;;6.20;81.70;;;;;;4999248;28;20050;-79
2022/04/08 10:29:34;;;;;;;5.57;2.70;;;6.10;83.00;;;;;;5034964;28;20128;-79
2022/04/08 10:32:03;;;;;;;6.07;1.92;;;6.20;83.60;;;;;;5034993;28;20053;-79
2022/04/08 10:34:32;;;;;;;5.05;1.33;;;6.40;84.30;;;;;;5034927;28;20073;-76
2022/04/08 10:37:14;;;;;;;3.47;1.13;;;6.60;84.60;;;;;;5034628;28;20053;-77
2022/04/08 10:39:42;;;;;;;7.03;1.70;;;6.90;84.00;;;;;;5034770;28;20052;-77
2022/04/08 10:42:22;;;;;;;9.23;2.10;;;7.10;84.20;;;;;;5034732;28;20041;-77
2022/04/08 10:44:49;;;;;;;5.30;1.52;;;7.50;83.70;;;;;;5035036;28;20085;-78
2022/04/08 10:47:17;;;;;;;6.72;2.22;;;7.70;82.00;;;;;;5034626;28;20088;-78
2022/04/08 10:50:00;;;;;;;6.60;1.60;;;8.00;82.00;;;;;;5034577;28;20045;-78
2022/04/08 10:52:28;;;;;;;6.63;1.50;;;8.30;81.00;;;;;;5002545;28;20046;-78
2022/04/08 10:55:08;;;;;;;4.78;1.13;;;8.50;76.30;;;;;;5034764;28;20101;-77
2022/04/08 10:57:41;;;;;;;5.88;1.08;;;8.80;76.30;;;;;;5017946;28;20116;-78
2022/04/08 11:00:19;;;;;;;5.10;1.35;;;8.90;74.70;;;;;;5018013;28;20510;-78
2022/04/08 11:02:48;;;;;;;6.57;1.40;;;8.80;74.50;;;;;;5018172;28;20443;-78
2022/04/08 11:05:16;;;;;;;7.43;1.33;;;8.80;73.00;;;;;;5034589;28;20397;-78
2022/04/08 11:07:43;;;;;;;6.13;1.00;;;8.60;72.80;;;;;;5034299;28;20052;-77
2022/04/08 11:10:17;;;;;;;4.63;1.27;;;8.70;71.80;;;;;;5034237;28;20490;-77
2022/04/08 11:12:51;;;;;;;5.27;1.53;;;8.90;72.10;;;;;;5034120;28;20440;-78
2022/04/08 11:15:23;;;;;;;4.07;1.25;;;9.20;71.70;;;;;;5034222;28;20076;-78
2022/04/08 11:17:50;;;;;;;5.55;1.55;;;9.20;71.00;;;;;;5033881;28;20034;-77
2022/04/08 11:20:21;;;;;;;5.45;1.10;;;9.30;71.80;;;;;;5024173;28;20037;-79
2022/04/08 11:22:54;;;;;;;4.43;0.90;;;9.30;70.60;;;;;;5014257;28;20042;-78
2022/04/08 11:25:30;;;;;;;4.47;1.00;;;9.30;69.30;;;;;;5014236;28;20132;-78
2022/04/08 11:28:03;;;;;;;3.53;0.77;;;9.30;69.70;;;;;;5013707;28;20188;-78
2022/04/08 11:30:31;;;;;;;6.50;1.55;;;9.30;66.50;;;;;;4996800;28;20484;-79
2022/04/08 11:32:58;;;;;;;4.38;1.73;;;9.30;66.30;;;;;;4996801;28;20050;-78
2022/04/08 11:35:31;;;;;;;2.58;0.90;;;9.40;67.40;;;;;;5013662;28;20454;-78
2022/04/08 11:37:58;;;;;;;5.57;1.20;;;9.50;66.90;;;;;;5012380;28;20123;-78
2022/04/08 11:40:24;;;;;;;5.43;1.73;;;9.70;67.80;;;;;;5013564;28;20037;-78
2022/04/08 11:42:50;;;;;;;6.00;1.00;;;9.80;67.00;;;;;;5013220;28;20509;-80
2022/04/08 11:45:16;;;;;;;4.60;1.40;;;10.00;66.80;;;;;;5013752;28;20048;-79
2022/04/08 11:47:47;;;;;;;3.75;1.00;;;10.10;64.30;;;;;;4997662;28;20383;-79
2022/04/08 11:50:13;;;;;;;4.43;1.00;;;10.30;65.70;;;;;;4997248;28;20052;-80
2022/04/08 11:52:39;;;;;;;3.05;0.80;;;10.30;63.10;;;;;;4981148;28;20133;-79
2022/04/08 11:55:09;;;;;;;5.13;1.15;;;10.40;65.70;;;;;;4997347;28;20402;-81
2022/04/08 11:57:37;;;;;;;5.43;1.58;;;10.50;66.30;;;;;;4997191;28;20038;-80
2022/04/08 12:00:07;;;;;;;4.00;0.93;;;10.40;65.00;;;;;;5013690;28;20376;-79
2022/04/08 12:02:35;;;;;;;8.40;1.50;;;10.20;65.80;;;;;;5013387;28;20060;-79
2022/04/08 12:05:02;;;;;;;8.27;1.52;;;10.00;67.10;;;;;;5013381;28;20495;-81
2022/04/08 12:07:30;;;;;;;6.53;2.15;;;9.80;66.70;;;;;;5013414;28;20111;-78
2022/04/08 12:09:58;;;;;;;9.70;1.30;;;9.60;67.10;;;;;;4981691;28;20046;-78
2022/04/08 12:12:25;;;;;;;2.17;1.00;;;9.60;67.30;;;;;;5013213;28;20333;-80
2022/04/08 12:14:51;;;;;;;2.35;0.75;;;9.70;65.30;;;;;;5013281;28;20124;-81
2022/04/08 12:17:17;;;;;;;4.90;1.42;;;9.80;61.30;;;;;;5013290;28;20124;-80
2022/04/08 12:19:43;;;;;;;5.95;1.23;;;9.70;61.60;;;;;;4997018;28;20129;-80
2022/04/08 12:22:13;;;;;;;2.65;1.40;;;9.80;64.70;;;;;;4997204;28;20080;-80
2022/04/08 12:24:40;;;;;;;6.55;1.20;;;10.00;64.00;;;;;;4996631;28;20045;-79
2022/04/08 12:27:30;;;;;;;3.53;0.80;;;10.10;60.70;;;;;;5013143;28;20433;-80
2022/04/08 12:30:08;;;;;;;4.07;0.98;;;10.20;60.60;;;;;;5013086;28;20398;-79
2022/04/08 12:32:40;;;;;;;3.80;1.23;;;10.30;60.80;;;;;;5012871;28;20464;-81
2022/04/08 12:35:08;;;;;;;4.07;1.02;;;10.30;60.30;;;;;;4996870;28;20069;-79
2022/04/08 12:37:35;;;;;;;5.38;1.10;;;10.40;60.70;;;;;;4996289;28;20057;-81
2022/04/08 12:40:03;;;;;;;6.30;1.25;;;10.50;61.30;;;;;;4996477;28;20509;-80
2022/04/08 12:42:28;;;;;;;3.60;1.08;;;10.50;62.50;;;;;;5012691;28;20037;-79
2022/04/08 12:44:54;;;;;;;6.88;1.17;;;10.40;63.70;;;;;;4996384;28;20045;-81
2022/04/08 12:47:20;;;;;;;5.97;1.08;;;10.00;61.70;;;;;;5012736;28;20088;-80
2022/04/08 12:49:45;;;;;;;3.15;1.17;;;9.80;61.20;;;;;;4996155;28;20034;-80
2022/04/08 12:52:11;;;;;;;5.03;1.15;;;9.70;63.10;;;;;;5012558;28;20042;-80
2022/04/08 12:54:37;;;;;;;6.32;1.23;;;9.60;63.70;;;;;;4996455;28;20042;-79
2022/04/08 12:57:03;;;;;;;5.55;1.98;;;9.70;64.00;;;;;;4996178;28;20406;-79